createdAt,value
2023-05-15T00:00:45.291Z,220.26
2023-05-15T00:01:46.010Z,219.97
2023-05-15T00:02:46.076Z,219.97
2023-05-15T00:03:44.791Z,220.26
2023-05-15T00:04:45.986Z,220.71
2023-05-15T00:05:45.929Z,221.60
2023-05-15T00:06:45.920Z,219.97
2023-05-15T00:07:45.908Z,220.26
2023-05-15T00:08:45.882Z,220.41
2023-05-15T00:09:45.870Z,220.26
2023-05-15T00:10:57.369Z,219.53
2023-05-15T00:11:46.844Z,220.26
2023-05-15T00:12:45.836Z,219.38
2023-05-15T00:13:45.824Z,219.53
2023-05-15T00:14:45.809Z,219.53
2023-05-15T00:15:45.803Z,218.50
2023-05-15T00:16:45.780Z,219.67
2023-05-15T00:17:45.812Z,219.82
2023-05-15T00:18:45.828Z,218.79
2023-05-15T00:19:45.725Z,221.75
2023-05-15T00:20:45.710Z,221.45
2023-05-15T00:21:45.716Z,221.01
2023-05-15T00:22:45.699Z,224.33
2023-05-15T00:23:45.677Z,223.57
2023-05-15T00:24:45.675Z,222.96
2023-05-15T00:25:45.646Z,223.72
2023-05-15T00:26:45.650Z,225.10
2023-05-15T00:27:44.165Z,225.41
2023-05-15T00:28:45.626Z,226.65
2023-05-15T00:29:45.582Z,225.72
2023-05-15T00:30:45.611Z,226.65
2023-05-15T00:31:45.633Z,226.50
2023-05-15T00:32:45.620Z,226.34
2023-05-15T00:33:45.538Z,227.12
2023-05-15T00:34:45.529Z,227.76
2023-05-15T00:35:44.299Z,226.03
2023-05-15T00:36:45.511Z,228.23
2023-05-15T00:37:45.492Z,228.39
2023-05-15T00:38:45.473Z,227.60
2023-05-15T00:39:45.460Z,229.03
2023-05-15T00:40:44.014Z,229.99
2023-05-15T00:41:45.448Z,229.03
2023-05-15T00:42:45.414Z,231.12
2023-05-15T00:43:43.953Z,229.51
2023-05-15T00:44:45.395Z,229.83
2023-05-15T00:45:45.382Z,229.67
2023-05-15T00:46:45.392Z,229.83
2023-05-15T00:47:45.371Z,228.55
2023-05-15T00:48:44.068Z,230.48
2023-05-15T00:49:43.976Z,229.19
2023-05-15T00:50:45.313Z,229.19
2023-05-15T00:51:45.314Z,227.44
2023-05-15T00:52:45.290Z,229.03
2023-05-15T00:53:44.013Z,228.55
2023-05-15T00:54:45.268Z,227.60
2023-05-15T00:55:45.277Z,227.44
2023-05-15T00:56:45.236Z,227.44
2023-05-15T00:57:45.224Z,228.39
2023-05-15T00:58:45.204Z,228.23
2023-05-15T00:59:45.202Z,229.03
2023-05-15T01:00:45.270Z,229.03
2023-05-15T01:01:45.179Z,228.39
2023-05-15T01:02:45.205Z,227.44
2023-05-15T01:03:45.144Z,228.87
2023-05-15T01:04:45.145Z,228.55
2023-05-15T01:05:45.129Z,227.28
2023-05-15T01:06:45.123Z,228.07
2023-05-15T01:07:43.884Z,226.50
2023-05-15T01:08:45.080Z,228.55
2023-05-15T01:09:45.098Z,226.18
2023-05-15T01:10:45.044Z,225.87
2023-05-15T01:11:45.027Z,225.87
2023-05-15T01:12:45.016Z,225.41
2023-05-15T01:13:45.043Z,225.56
2023-05-15T01:14:44.508Z,224.95
2023-05-15T01:15:44.954Z,227.28
2023-05-15T01:16:44.960Z,225.87
2023-05-15T01:17:44.999Z,226.65
2023-05-15T01:18:44.170Z,226.18
2023-05-15T01:19:45.070Z,226.65
2023-05-15T01:20:44.900Z,226.97
2023-05-15T01:21:44.896Z,226.65
2023-05-15T01:22:44.868Z,225.10
2023-05-15T01:23:44.870Z,225.25
2023-05-15T01:24:44.862Z,225.41
2023-05-15T01:25:44.827Z,225.87
2023-05-15T01:26:44.827Z,225.10
2023-05-15T01:27:44.827Z,224.95
2023-05-15T01:28:44.796Z,224.95
2023-05-15T01:29:44.788Z,225.41
2023-05-15T01:30:44.799Z,226.50
2023-05-15T01:31:44.767Z,227.12
2023-05-15T01:32:44.832Z,226.97
2023-05-15T01:33:44.754Z,228.07
2023-05-15T01:34:44.730Z,227.60
2023-05-15T01:35:44.690Z,229.35
2023-05-15T01:36:44.673Z,230.15
2023-05-15T01:37:44.668Z,230.64
2023-05-15T01:38:44.682Z,230.96
2023-05-15T01:39:44.644Z,232.10
2023-05-15T01:40:44.625Z,232.60
2023-05-15T01:41:44.609Z,233.59
2023-05-15T01:42:44.616Z,235.77
2023-05-15T01:43:44.579Z,232.76
2023-05-15T01:44:44.586Z,234.60
2023-05-15T01:45:44.558Z,234.09
2023-05-15T01:46:44.642Z,235.44
2023-05-15T01:47:44.597Z,234.09
2023-05-15T01:48:44.517Z,235.94
2023-05-15T01:49:44.504Z,236.11
2023-05-15T01:50:44.494Z,234.93
2023-05-15T01:51:44.505Z,236.80
2023-05-15T01:52:44.485Z,237.48
2023-05-15T01:53:44.293Z,237.65
2023-05-15T01:54:44.438Z,236.62
2023-05-15T01:55:44.429Z,237.14
2023-05-15T01:56:44.404Z,238.34
2023-05-15T01:57:44.401Z,238.52
2023-05-15T01:58:44.378Z,238.52
2023-05-15T01:59:44.384Z,239.39
2023-05-15T02:00:44.375Z,238.86
2023-05-15T02:01:44.419Z,240.62
2023-05-15T02:02:44.430Z,239.21
2023-05-15T02:03:43.489Z,238.52
2023-05-15T02:04:43.816Z,238.86
2023-05-15T02:05:44.297Z,239.39
2023-05-15T02:06:44.296Z,239.91
2023-05-15T02:07:44.256Z,239.39
2023-05-15T02:08:44.267Z,242.04
2023-05-15T02:09:44.247Z,242.57
2023-05-15T02:10:44.251Z,240.97
2023-05-15T02:11:44.206Z,239.74
2023-05-15T02:12:44.178Z,240.44
2023-05-15T02:13:44.174Z,240.09
2023-05-15T02:14:44.182Z,239.39
2023-05-15T02:15:44.149Z,240.26
2023-05-15T02:16:43.371Z,241.86
2023-05-15T02:17:44.151Z,239.74
2023-05-15T02:18:44.142Z,239.91
2023-05-15T02:19:44.115Z,239.91
2023-05-15T02:20:44.093Z,241.15
2023-05-15T02:21:44.097Z,239.74
2023-05-15T02:22:44.095Z,241.50
2023-05-15T02:23:44.077Z,241.32
2023-05-15T02:24:44.063Z,240.09
2023-05-15T02:25:44.065Z,240.26
2023-05-15T02:26:44.035Z,239.74
2023-05-15T02:27:44.026Z,240.62
2023-05-15T02:28:44.002Z,240.26
2023-05-15T02:29:44.005Z,240.26
2023-05-15T02:30:43.999Z,242.39
2023-05-15T02:31:42.539Z,242.75
2023-05-15T02:32:43.982Z,243.29
2023-05-15T02:33:43.942Z,241.68
2023-05-15T02:34:43.910Z,243.11
2023-05-15T02:35:43.894Z,243.11
2023-05-15T02:36:43.863Z,242.75
2023-05-15T02:37:43.932Z,240.09
2023-05-15T02:38:43.924Z,240.26
2023-05-15T02:39:43.827Z,240.62
2023-05-15T02:40:43.820Z,240.44
2023-05-15T02:41:43.805Z,241.15
2023-05-15T02:42:43.787Z,239.91
2023-05-15T02:43:43.786Z,241.86
2023-05-15T02:44:43.773Z,241.50
2023-05-15T02:45:43.762Z,240.44
2023-05-15T02:46:43.725Z,239.74
2023-05-15T02:47:43.753Z,242.04
2023-05-15T02:48:43.740Z,240.97
2023-05-15T02:49:43.712Z,240.26
2023-05-15T02:50:43.698Z,239.91
2023-05-15T02:51:43.712Z,239.91
2023-05-15T02:52:43.653Z,240.79
2023-05-15T02:53:43.653Z,242.21
2023-05-15T02:54:43.625Z,240.79
2023-05-15T02:55:43.610Z,242.75
2023-05-15T02:56:43.594Z,241.68
2023-05-15T02:57:43.581Z,241.50
2023-05-15T02:58:43.592Z,241.50
2023-05-15T02:59:43.569Z,242.39
2023-05-15T03:00:43.547Z,242.21
2023-05-15T03:01:43.582Z,241.32
2023-05-15T03:02:43.574Z,242.21
2023-05-15T03:03:43.498Z,243.29
2023-05-15T03:04:43.657Z,242.75
2023-05-15T03:05:43.486Z,243.29
2023-05-15T03:06:43.466Z,244.02
2023-05-15T03:07:43.469Z,244.93
2023-05-15T03:08:43.431Z,242.57
2023-05-15T03:09:43.439Z,244.20
2023-05-15T03:10:43.434Z,242.93
2023-05-15T03:11:43.394Z,242.93
2023-05-15T03:12:43.384Z,244.02
2023-05-15T03:13:43.405Z,244.02
2023-05-15T03:14:43.345Z,242.93
2023-05-15T03:15:43.349Z,243.29
2023-05-15T03:16:43.396Z,242.21
2023-05-15T03:17:43.465Z,244.20
2023-05-15T03:18:43.327Z,242.93
2023-05-15T03:19:43.294Z,241.50
2023-05-15T03:20:43.288Z,241.32
2023-05-15T03:21:43.264Z,241.32
2023-05-15T03:22:43.264Z,241.50
2023-05-15T03:23:43.240Z,241.15
2023-05-15T03:24:43.219Z,242.57
2023-05-15T03:25:43.205Z,241.68
2023-05-15T03:26:43.233Z,241.15
2023-05-15T03:27:43.167Z,239.39
2023-05-15T03:28:43.148Z,239.91
2023-05-15T03:29:43.169Z,241.32
2023-05-15T03:30:43.143Z,240.26
2023-05-15T03:31:42.707Z,240.97
2023-05-15T03:32:43.172Z,241.15
2023-05-15T03:33:43.102Z,239.56
2023-05-15T03:34:43.087Z,240.62
2023-05-15T03:35:43.093Z,240.44
2023-05-15T03:36:43.059Z,240.44
2023-05-15T03:37:42.121Z,240.62
2023-05-15T03:38:42.075Z,238.69
2023-05-15T03:39:43.030Z,238.52
2023-05-15T03:40:43.007Z,238.86
2023-05-15T03:41:42.987Z,240.09
2023-05-15T03:42:42.969Z,238.34
2023-05-15T03:43:42.966Z,238.69
2023-05-15T03:44:42.949Z,238.34
2023-05-15T03:45:42.931Z,237.65
2023-05-15T03:46:42.934Z,239.04
2023-05-15T03:47:43.025Z,238.00
2023-05-15T03:48:42.903Z,239.56
2023-05-15T03:49:42.896Z,238.86
2023-05-15T03:50:42.875Z,240.09
2023-05-15T03:51:42.844Z,237.82
2023-05-15T03:52:42.851Z,238.86
2023-05-15T03:53:42.818Z,239.21
2023-05-15T03:54:42.814Z,237.31
2023-05-15T03:55:42.832Z,239.21
2023-05-15T03:56:42.781Z,238.00
2023-05-15T03:57:42.762Z,238.34
2023-05-15T03:58:42.762Z,238.86
2023-05-15T03:59:42.746Z,237.82
2023-05-15T04:00:42.732Z,238.52
2023-05-15T04:01:59.468Z,238.34
2023-05-15T04:02:43.755Z,237.82
2023-05-15T04:03:42.721Z,238.86
2023-05-15T04:04:42.689Z,236.97
2023-05-15T04:05:42.706Z,236.97
2023-05-15T04:06:42.646Z,238.17
2023-05-15T04:07:42.621Z,236.45
2023-05-15T04:08:42.620Z,235.94
2023-05-15T04:09:42.617Z,236.62
2023-05-15T04:10:42.584Z,236.28
2023-05-15T04:11:42.599Z,234.76
2023-05-15T04:12:42.557Z,233.76
2023-05-15T04:13:42.567Z,232.76
2023-05-15T04:14:42.544Z,231.94
2023-05-15T04:15:42.519Z,230.80
2023-05-15T04:16:42.646Z,231.12
2023-05-15T04:17:42.533Z,230.15
2023-05-15T04:18:42.528Z,229.67
2023-05-15T04:19:43.127Z,229.03
2023-05-15T04:20:42.449Z,227.60
2023-05-15T04:21:42.453Z,229.03
2023-05-15T04:22:42.432Z,225.87
2023-05-15T04:23:42.435Z,226.65
2023-05-15T04:24:41.431Z,225.87
2023-05-15T04:25:41.424Z,224.95
2023-05-15T04:26:42.461Z,224.64
2023-05-15T04:27:42.374Z,225.25
2023-05-15T04:28:52.492Z,223.41
2023-05-15T04:29:43.337Z,223.57
2023-05-15T04:30:42.318Z,223.11
2023-05-15T04:31:42.332Z,222.20
2023-05-15T04:32:42.355Z,224.02
2023-05-15T04:33:42.283Z,221.01
2023-05-15T04:34:42.256Z,220.26
2023-05-15T04:35:42.279Z,221.30
2023-05-15T04:36:42.956Z,219.97
2023-05-15T04:37:42.232Z,220.26
2023-05-15T04:38:42.217Z,219.38
2023-05-15T04:39:42.184Z,219.97
2023-05-15T04:40:42.162Z,219.23
2023-05-15T04:41:42.174Z,219.67
2023-05-15T04:42:42.153Z,219.38
2023-05-15T04:43:42.138Z,219.38
2023-05-15T04:44:42.124Z,219.09
2023-05-15T04:45:42.138Z,220.41
2023-05-15T04:46:42.110Z,219.38
2023-05-15T04:47:42.169Z,220.71
2023-05-15T04:48:42.069Z,218.50
2023-05-15T04:49:41.563Z,221.30
2023-05-15T04:50:42.028Z,221.15
2023-05-15T04:51:42.045Z,220.71
2023-05-15T04:52:42.030Z,218.21
2023-05-15T04:53:41.998Z,219.38
2023-05-15T04:54:41.976Z,218.50
2023-05-15T04:55:41.971Z,218.07
2023-05-15T04:56:41.966Z,217.92
2023-05-15T04:57:41.959Z,216.49
2023-05-15T04:58:41.929Z,216.63
2023-05-15T04:59:41.954Z,216.49
2023-05-15T05:00:41.907Z,214.64
2023-05-15T05:01:42.008Z,216.06
2023-05-15T05:02:41.948Z,215.49
2023-05-15T05:03:41.897Z,215.07
2023-05-15T05:04:41.834Z,215.07
2023-05-15T05:05:41.853Z,215.07
2023-05-15T05:06:41.832Z,214.22
2023-05-15T05:07:41.838Z,214.50
2023-05-15T05:08:41.798Z,213.39
2023-05-15T05:09:41.781Z,213.11
2023-05-15T05:10:41.811Z,212.28
2023-05-15T05:11:41.769Z,211.46
2023-05-15T05:12:41.736Z,212.15
2023-05-15T05:13:41.733Z,210.51
2023-05-15T05:14:41.723Z,209.84
2023-05-15T05:15:41.766Z,208.37
2023-05-15T05:16:41.680Z,205.24
2023-05-15T05:17:41.742Z,204.99
2023-05-15T05:18:41.684Z,204.10
2023-05-15T05:19:41.675Z,202.58
2023-05-15T05:20:41.650Z,204.48
2023-05-15T05:21:41.655Z,203.97
2023-05-15T05:22:41.607Z,204.73
2023-05-15T05:23:41.603Z,204.35
2023-05-15T05:24:41.634Z,207.06
2023-05-15T05:25:41.554Z,206.80
2023-05-15T05:26:41.549Z,207.06
2023-05-15T05:27:41.528Z,207.98
2023-05-15T05:28:41.524Z,204.73
2023-05-15T05:29:41.505Z,205.37
2023-05-15T05:30:41.489Z,205.89
2023-05-15T05:31:41.570Z,204.61
2023-05-15T05:32:41.554Z,203.97
2023-05-15T05:33:41.461Z,204.61
2023-05-15T05:34:41.445Z,203.97
2023-05-15T05:35:41.427Z,204.48
2023-05-15T05:36:40.191Z,203.21
2023-05-15T05:37:41.672Z,201.34
2023-05-15T05:38:41.396Z,200.85
2023-05-15T05:39:41.399Z,200.85
2023-05-15T05:40:41.357Z,200.60
2023-05-15T05:41:41.348Z,202.58
2023-05-15T05:42:41.318Z,202.58
2023-05-15T05:43:41.325Z,203.21
2023-05-15T05:44:41.308Z,203.97
2023-05-15T05:45:41.280Z,203.46
2023-05-15T05:46:41.315Z,204.73
2023-05-15T05:47:41.302Z,206.41
2023-05-15T05:48:41.253Z,207.45
2023-05-15T05:49:41.227Z,209.44
2023-05-15T05:50:41.226Z,211.19
2023-05-15T05:51:41.215Z,212.83
2023-05-15T05:52:41.199Z,214.50
2023-05-15T05:53:41.182Z,214.93
2023-05-15T05:54:41.167Z,216.20
2023-05-15T05:55:41.146Z,218.36
2023-05-15T05:56:41.125Z,219.53
2023-05-15T05:57:41.126Z,222.05
2023-05-15T05:58:41.117Z,225.56
2023-05-15T05:59:41.089Z,226.81
2023-05-15T06:00:41.079Z,227.60
2023-05-15T06:01:41.103Z,228.39
2023-05-15T06:02:41.245Z,229.19
2023-05-15T06:03:41.085Z,230.48
2023-05-15T06:04:41.027Z,233.43
2023-05-15T06:05:41.018Z,236.11
2023-05-15T06:06:40.994Z,236.45
2023-05-15T06:07:41.005Z,238.00
2023-05-15T06:08:40.952Z,238.86
2023-05-15T06:09:40.963Z,246.21
2023-05-15T06:10:40.932Z,251.69
2023-05-15T06:11:40.943Z,255.01
2023-05-15T06:12:40.930Z,260.48
2023-05-15T06:13:40.919Z,262.78
2023-05-15T06:14:40.876Z,265.33
2023-05-15T06:15:40.870Z,264.90
2023-05-15T06:16:40.886Z,262.36
2023-05-15T06:17:40.886Z,264.26
2023-05-15T06:18:40.877Z,264.05
2023-05-15T06:19:40.821Z,262.78
2023-05-15T06:20:40.804Z,264.05
2023-05-15T06:21:40.794Z,262.99
2023-05-15T06:22:40.774Z,263.83
2023-05-15T06:23:40.751Z,266.62
2023-05-15T06:24:40.731Z,265.97
2023-05-15T06:25:40.913Z,264.90
2023-05-15T06:26:40.729Z,265.97
2023-05-15T06:27:40.798Z,269.47
2023-05-15T06:28:40.689Z,279.33
2023-05-15T06:29:40.675Z,282.46
2023-05-15T06:30:40.721Z,289.18
2023-05-15T06:31:40.680Z,293.05
2023-05-15T06:32:40.645Z,300.84
2023-05-15T06:33:40.615Z,306.18
2023-05-15T06:34:40.600Z,304.19
2023-05-15T06:35:40.610Z,307.04
2023-05-15T06:36:40.585Z,307.61
2023-05-15T06:37:40.575Z,306.18
2023-05-15T06:38:40.579Z,303.63
2023-05-15T06:39:40.549Z,303.35
2023-05-15T06:40:40.551Z,295.16
2023-05-15T06:41:40.534Z,287.91
2023-05-15T06:42:40.524Z,287.91
2023-05-15T06:43:40.498Z,288.67
2023-05-15T06:44:40.495Z,289.43
2023-05-15T06:45:40.475Z,291.23
2023-05-15T06:46:40.470Z,291.75
2023-05-15T06:47:40.526Z,293.84
2023-05-15T06:48:40.500Z,293.58
2023-05-15T06:49:40.428Z,295.96
2023-05-15T06:50:40.407Z,295.69
2023-05-15T06:51:40.378Z,293.84
2023-05-15T06:52:40.369Z,285.16
2023-05-15T06:53:40.346Z,283.68
2023-05-15T06:54:40.349Z,282.21
2023-05-15T06:55:40.344Z,286.65
2023-05-15T06:56:40.304Z,289.69
2023-05-15T06:57:40.296Z,292.01
2023-05-15T06:58:40.335Z,295.96
2023-05-15T06:59:40.300Z,304.47
2023-05-15T07:00:40.253Z,306.18
2023-05-15T07:01:40.316Z,314.39
2023-05-15T07:02:40.301Z,314.09
2023-05-15T07:03:40.238Z,318.98
2023-05-15T07:04:40.269Z,319.29
2023-05-15T07:05:40.195Z,321.48
2023-05-15T07:06:40.186Z,324.34
2023-05-15T07:07:40.182Z,330.21
2023-05-15T07:08:40.153Z,331.55
2023-05-15T07:09:40.147Z,334.25
2023-05-15T07:10:40.122Z,333.91
2023-05-15T07:11:40.120Z,333.23
2023-05-15T07:12:40.103Z,335.96
2023-05-15T07:13:40.094Z,335.62
2023-05-15T07:14:40.074Z,331.21
2023-05-15T07:15:40.155Z,329.88
2023-05-15T07:16:40.094Z,331.88
2023-05-15T07:17:40.087Z,334.93
2023-05-15T07:18:40.157Z,330.88
2023-05-15T07:19:40.019Z,333.91
2023-05-15T07:20:40.057Z,336.30
2023-05-15T07:21:39.970Z,335.96
2023-05-15T07:22:51.944Z,338.39
2023-05-15T07:23:40.954Z,333.57
2023-05-15T07:24:40.694Z,341.56
2023-05-15T07:25:40.019Z,346.61
2023-05-15T07:26:50.362Z,354.85
2023-05-15T07:27:40.894Z,361.90
2023-05-15T07:28:39.893Z,366.34
2023-05-15T07:29:39.888Z,377.30
2023-05-15T07:30:39.934Z,384.79
2023-05-15T07:31:39.892Z,387.69
2023-05-15T07:32:39.872Z,387.24
2023-05-15T07:33:39.836Z,390.65
2023-05-15T07:34:39.821Z,397.16
2023-05-15T07:35:39.793Z,398.35
2023-05-15T07:36:39.793Z,410.86
2023-05-15T07:37:39.765Z,423.65
2023-05-15T07:38:39.764Z,439.57
2023-05-15T07:39:39.884Z,441.03
2023-05-15T07:40:39.745Z,449.65
2023-05-15T07:41:39.749Z,455.80
2023-05-15T07:42:39.749Z,459.89
2023-05-15T07:43:39.714Z,463.72
2023-05-15T07:44:39.670Z,471.93
2023-05-15T07:45:39.751Z,482.16
2023-05-15T07:46:39.702Z,487.45
2023-05-15T07:47:39.644Z,493.95
2023-05-15T07:48:39.613Z,499.13
2023-05-15T07:49:39.606Z,511.38
2023-05-15T07:50:39.587Z,518.94
2023-05-15T07:51:39.576Z,525.48
2023-05-15T07:52:39.581Z,530.50
2023-05-15T07:53:39.566Z,540.82
2023-05-15T07:54:39.580Z,546.14
2023-05-15T07:55:39.532Z,552.01
2023-05-15T07:56:39.535Z,563.68
2023-05-15T07:57:39.540Z,573.37
2023-05-15T07:58:38.329Z,585.97
2023-05-15T07:59:39.468Z,595.39
2023-05-15T08:00:39.459Z,597.52
2023-05-15T08:01:39.464Z,594.33
2023-05-15T08:02:39.491Z,604.02
2023-05-15T08:03:39.655Z,614.03
2023-05-15T08:04:39.532Z,609.54
2023-05-15T08:05:39.394Z,609.54
2023-05-15T08:06:39.391Z,619.73
2023-05-15T08:07:39.399Z,629.09
2023-05-15T08:08:39.355Z,636.29
2023-05-15T08:09:39.358Z,644.91
2023-05-15T08:10:39.342Z,656.33
2023-05-15T08:11:39.335Z,662.20
2023-05-15T08:12:39.312Z,661.54
2023-05-15T08:13:39.292Z,671.53
2023-05-15T08:14:37.982Z,670.18
2023-05-15T08:15:39.311Z,693.90
2023-05-15T08:16:39.268Z,703.41
2023-05-15T08:17:39.266Z,705.64
2023-05-15T08:18:38.320Z,704.90
2023-05-15T08:19:39.247Z,716.26
2023-05-15T08:20:39.228Z,727.19
2023-05-15T08:21:39.197Z,717.80
2023-05-15T08:22:39.190Z,716.26
2023-05-15T08:23:39.166Z,714.72
2023-05-15T08:24:39.168Z,708.64
2023-05-15T08:25:39.160Z,721.68
2023-05-15T08:26:39.135Z,725.61
2023-05-15T08:27:39.123Z,724.03
2023-05-15T08:28:39.124Z,713.95
2023-05-15T08:29:39.486Z,713.95
2023-05-15T08:30:39.073Z,713.19
2023-05-15T08:31:39.118Z,719.34
2023-05-15T08:32:39.131Z,717.03
2023-05-15T08:33:39.044Z,727.19
2023-05-15T08:34:39.139Z,737.65
2023-05-15T08:35:39.051Z,746.23
2023-05-15T08:36:39.679Z,734.40
2023-05-15T08:37:38.996Z,747.90
2023-05-15T08:38:38.967Z,756.80
2023-05-15T08:39:38.984Z,753.39
2023-05-15T08:40:40.142Z,740.93
2023-05-15T08:41:40.851Z,750.42
2023-05-15T08:42:38.936Z,752.11
2023-05-15T08:43:38.931Z,757.23
2023-05-15T08:44:38.935Z,756.37
2023-05-15T08:45:38.885Z,753.39
2023-05-15T08:46:38.907Z,750.84
2023-05-15T08:47:38.923Z,754.66
2023-05-15T08:48:39.018Z,729.58
2023-05-15T08:49:38.843Z,708.64
2023-05-15T08:50:38.835Z,724.82
2023-05-15T08:51:38.816Z,728.78
2023-05-15T08:52:38.808Z,736.02
2023-05-15T08:53:38.817Z,728.78
2023-05-15T08:54:38.788Z,728.78
2023-05-15T08:55:38.773Z,717.80
2023-05-15T08:56:38.758Z,693.17
2023-05-15T08:57:38.739Z,687.46
2023-05-15T08:58:38.744Z,700.46
2023-05-15T08:59:38.748Z,698.26
2023-05-15T09:00:38.702Z,685.34
2023-05-15T09:01:38.785Z,674.93
2023-05-15T09:02:38.766Z,677.68
2023-05-15T09:03:38.856Z,689.59
2023-05-15T09:04:38.656Z,699.72
2023-05-15T09:05:40.083Z,713.19
2023-05-15T09:06:38.646Z,722.46
2023-05-15T09:07:38.635Z,729.58
2023-05-15T09:08:37.678Z,730.38
2023-05-15T09:09:38.605Z,717.03
2023-05-15T09:10:38.570Z,724.03
2023-05-15T09:11:38.557Z,737.65
2023-05-15T09:12:38.556Z,736.83
2023-05-15T09:13:38.526Z,724.82
2023-05-15T09:14:38.534Z,724.03
2023-05-15T09:15:38.504Z,721.68
2023-05-15T09:16:38.591Z,728.78
2023-05-15T09:17:38.498Z,732.78
2023-05-15T09:18:38.513Z,724.82
2023-05-15T09:19:38.461Z,715.49
2023-05-15T09:20:38.486Z,701.19
2023-05-15T09:21:38.446Z,697.52
2023-05-15T09:22:38.435Z,697.52
2023-05-15T09:23:38.406Z,696.07
2023-05-15T09:24:38.394Z,700.46
2023-05-15T09:25:38.421Z,701.19
2023-05-15T09:26:38.382Z,706.39
2023-05-15T09:27:38.349Z,692.45
2023-05-15T09:28:38.333Z,679.75
2023-05-15T09:29:38.327Z,664.18
2023-05-15T09:30:38.312Z,670.18
2023-05-15T09:31:38.395Z,674.25
2023-05-15T09:32:38.314Z,668.17
2023-05-15T09:33:38.283Z,667.50
2023-05-15T09:34:38.256Z,649.30
2023-05-15T09:35:38.253Z,626.13
2023-05-15T09:36:38.248Z,602.38
2023-05-15T09:37:38.213Z,592.74
2023-05-15T09:38:38.232Z,584.43
2023-05-15T09:39:38.197Z,578.35
2023-05-15T09:40:38.238Z,572.39
2023-05-15T09:41:38.172Z,570.92
2023-05-15T09:42:38.161Z,568.48
2023-05-15T09:43:38.133Z,571.41
2023-05-15T09:44:38.129Z,572.88
2023-05-15T09:45:38.127Z,566.55
2023-05-15T09:46:38.149Z,564.63
2023-05-15T09:47:38.234Z,566.07
2023-05-15T09:48:38.175Z,562.73
2023-05-15T09:49:38.061Z,562.25
2023-05-15T09:50:38.058Z,560.36
2023-05-15T09:51:38.040Z,564.63
2023-05-15T09:52:38.012Z,587.52
2023-05-15T09:53:38.003Z,605.11
2023-05-15T09:54:37.983Z,617.44
2023-05-15T09:55:37.978Z,633.27
2023-05-15T09:56:37.966Z,646.16
2023-05-15T09:57:37.993Z,654.40
2023-05-15T09:58:37.929Z,652.48
2023-05-15T09:59:37.913Z,662.86
2023-05-15T10:00:48.174Z,672.89
2023-05-15T10:01:38.922Z,680.44
2023-05-15T10:02:37.921Z,688.88
2023-05-15T10:03:37.859Z,686.75
2023-05-15T10:04:37.868Z,691.02
2023-05-15T10:05:43.541Z,686.75
2023-05-15T10:06:40.647Z,672.21
2023-05-15T10:07:37.828Z,631.47
2023-05-15T10:08:37.804Z,603.47
2023-05-15T10:09:37.789Z,566.07
2023-05-15T10:10:37.780Z,527.98
2023-05-15T10:11:37.768Z,496.52
2023-05-15T10:12:37.967Z,462.12
2023-05-15T10:13:37.741Z,429.38
2023-05-15T10:14:37.745Z,398.35
2023-05-15T10:15:37.720Z,373.43
2023-05-15T10:16:37.767Z,354.09
2023-05-15T10:17:36.526Z,336.65
2023-05-15T10:18:37.721Z,319.29
2023-05-15T10:19:47.033Z,301.12
2023-05-15T10:20:38.627Z,288.42
2023-05-15T10:21:37.607Z,279.81
2023-05-15T10:22:37.603Z,270.13
2023-05-15T10:23:37.655Z,261.31
2023-05-15T10:24:37.588Z,252.46
2023-05-15T10:25:37.555Z,245.66
2023-05-15T10:26:37.548Z,238.00
2023-05-15T10:27:37.549Z,232.27
2023-05-15T10:28:37.550Z,226.97
2023-05-15T10:29:37.513Z,221.30
2023-05-15T10:30:37.505Z,217.35
2023-05-15T10:31:37.497Z,213.53
2023-05-15T10:32:37.566Z,211.19
2023-05-15T10:33:37.468Z,207.85
2023-05-15T10:34:36.597Z,204.73
2023-05-15T10:35:37.430Z,204.10
2023-05-15T10:36:37.970Z,200.36
2023-05-15T10:37:37.419Z,196.99
2023-05-15T10:38:36.196Z,196.99
2023-05-15T10:39:36.399Z,195.93
2023-05-15T10:40:37.400Z,192.82
2023-05-15T10:41:37.363Z,190.47
2023-05-15T10:42:37.367Z,190.80
2023-05-15T10:43:37.332Z,189.26
2023-05-15T10:44:35.915Z,187.53
2023-05-15T10:45:37.325Z,185.94
2023-05-15T10:46:37.343Z,186.04
2023-05-15T10:47:37.323Z,185.62
2023-05-15T10:48:37.267Z,183.78
2023-05-15T10:49:37.269Z,183.99
2023-05-15T10:50:36.718Z,182.98
2023-05-15T10:51:37.224Z,181.58
2023-05-15T10:52:37.239Z,181.19
2023-05-15T10:53:37.196Z,180.60
2023-05-15T10:54:37.165Z,180.80
2023-05-15T10:55:37.158Z,181.98
2023-05-15T10:56:37.184Z,182.78
2023-05-15T10:57:37.137Z,183.18
2023-05-15T10:58:37.116Z,181.39
2023-05-15T10:59:37.105Z,181.58
2023-05-15T11:00:37.082Z,182.38
2023-05-15T11:01:37.173Z,180.60
2023-05-15T11:02:37.093Z,180.99
2023-05-15T11:03:47.905Z,181.19
2023-05-15T11:04:38.086Z,180.02
2023-05-15T11:05:37.014Z,179.05
2023-05-15T11:06:37.021Z,179.05
2023-05-15T11:07:37.002Z,179.82
2023-05-15T11:08:36.993Z,178.86
2023-05-15T11:09:36.963Z,177.53
2023-05-15T11:10:36.972Z,178.10
2023-05-15T11:11:36.966Z,177.53
2023-05-15T11:12:36.928Z,178.86
2023-05-15T11:13:36.919Z,178.29
2023-05-15T11:14:36.896Z,176.59
2023-05-15T11:15:36.906Z,175.29
2023-05-15T11:16:36.916Z,175.10
2023-05-15T11:17:36.914Z,172.57
2023-05-15T11:18:36.874Z,171.15
2023-05-15T11:19:36.836Z,170.63
2023-05-15T11:20:37.281Z,168.39
2023-05-15T11:21:36.788Z,168.73
2023-05-15T11:22:36.778Z,168.05
2023-05-15T11:23:36.780Z,168.39
2023-05-15T11:24:36.771Z,168.39
2023-05-15T11:25:36.760Z,167.88
2023-05-15T11:26:35.794Z,167.38
2023-05-15T11:27:36.717Z,169.07
2023-05-15T11:28:36.236Z,169.59
2023-05-15T11:29:36.689Z,169.76
2023-05-15T11:30:36.688Z,172.04
2023-05-15T11:31:36.703Z,170.80
2023-05-15T11:32:36.688Z,170.80
2023-05-15T11:33:36.638Z,172.75
2023-05-15T11:34:36.641Z,173.11
2023-05-15T11:35:35.732Z,174.01
2023-05-15T11:36:37.708Z,172.39
2023-05-15T11:37:36.570Z,172.21
2023-05-15T11:38:36.562Z,172.75
2023-05-15T11:39:36.562Z,172.93
2023-05-15T11:40:36.530Z,172.04
2023-05-15T11:41:36.524Z,173.29
2023-05-15T11:42:36.521Z,174.19
2023-05-15T11:43:36.547Z,178.29
2023-05-15T11:44:36.501Z,183.38
2023-05-15T11:45:36.480Z,185.83
2023-05-15T11:46:36.534Z,185.01
2023-05-15T11:47:36.469Z,182.98
2023-05-15T11:48:36.441Z,180.02
2023-05-15T11:49:36.414Z,178.29
2023-05-15T11:50:36.410Z,176.77
2023-05-15T11:51:36.389Z,177.53
2023-05-15T11:52:36.365Z,178.67
2023-05-15T11:53:36.366Z,177.90
2023-05-15T11:54:36.350Z,177.34
2023-05-15T11:55:36.342Z,178.10
2023-05-15T11:56:34.997Z,178.48
2023-05-15T11:57:36.327Z,178.10
2023-05-15T11:58:36.314Z,175.47
2023-05-15T11:59:36.270Z,172.21
2023-05-15T12:00:36.260Z,171.86
2023-05-15T12:01:36.246Z,173.83
2023-05-15T12:02:36.315Z,174.55
2023-05-15T12:03:36.557Z,172.21
2023-05-15T12:04:36.234Z,170.98
2023-05-15T12:05:36.428Z,170.11
2023-05-15T12:06:36.191Z,170.80
2023-05-15T12:07:36.177Z,170.63
2023-05-15T12:08:36.156Z,172.21
2023-05-15T12:09:36.140Z,175.84
2023-05-15T12:10:36.127Z,179.63
2023-05-15T12:11:36.122Z,181.58
2023-05-15T12:12:36.109Z,180.21
2023-05-15T12:13:36.097Z,180.02
2023-05-15T12:14:36.076Z,182.18
2023-05-15T12:15:36.066Z,182.18
2023-05-15T12:16:36.065Z,185.20
2023-05-15T12:17:36.150Z,186.57
2023-05-15T12:18:36.028Z,187.32
2023-05-15T12:19:36.004Z,185.41
2023-05-15T12:20:36.002Z,188.07
2023-05-15T12:21:37.766Z,187.64
2023-05-15T12:22:35.971Z,186.47
2023-05-15T12:23:35.947Z,186.24
2023-05-15T12:24:35.931Z,189.15
2023-05-15T12:25:35.933Z,190.03
2023-05-15T12:26:36.108Z,188.61
2023-05-15T12:27:35.901Z,188.94
2023-05-15T12:28:35.869Z,193.16